Time;durP1;ratioP1;P1;durP2;ratioP2;P2;SDS_P1;SDS_P2;PMS_P1;PMS_P2;Temp;Humidity;BMP_temperature;BMP_pressure;BME280_temperature;BME280_humidity;BME280_pressure;Samples;Min_cycle;Max_cycle;Signal;HPM_P1;HPM_P2
2023/01/24 00:01:15;;;;;;;27.00;25.10;;;;;;;;;;5084767;28;20229;-84
2023/01/24 00:03:42;;;;;;;26.13;24.05;;;;;;;;;;5086150;28;20198;-83
2023/01/24 00:06:10;;;;;;;24.92;23.13;;;;;;;;;;5085092;28;20274;-82
2023/01/24 00:08:38;;;;;;;26.70;24.70;;;;;;;;;;5085837;28;20255;-83
2023/01/24 00:11:07;;;;;;;26.33;24.05;;;;;;;;;;5088028;28;20197;-82
2023/01/24 00:13:35;;;;;;;26.65;24.58;;;;;;;;;;5085655;28;20231;-83
2023/01/24 00:16:09;;;;;;;23.55;22.05;;;;;;;;;;5084993;28;20230;-83
2023/01/24 00:18:37;;;;;;;26.42;24.35;;;;;;;;;;5086477;28;20210;-82
2023/01/24 00:21:08;;;;;;;26.65;24.42;;;;;;;;;;5090021;28;20217;-83
2023/01/24 00:23:36;;;;;;;27.80;25.23;;;;;;;;;;5092479;28;20202;-83
2023/01/24 00:26:04;;;;;;;26.58;24.38;;;;;;;;;;5085632;28;20241;-82
2023/01/24 00:28:35;;;;;;;26.35;24.45;;;;;;;;;;5085638;28;20234;-83
2023/01/24 00:31:03;;;;;;;23.88;22.13;;;;;;;;;;5090698;28;20663;-83
2023/01/24 00:33:30;;;;;;;26.38;24.15;;;;;;;;;;5086393;28;20222;-83
2023/01/24 00:35:57;;;;;;;27.67;25.70;;;;;;;;;;5087224;28;20220;-83
2023/01/24 00:38:24;;;;;;;27.83;25.63;;;;;;;;;;5087323;28;20212;-83
2023/01/24 00:40:52;;;;;;;28.88;26.40;;;;;;;;;;5085505;28;20563;-82
2023/01/24 00:43:20;;;;;;;28.48;25.95;;;;;;;;;;5083203;28;20207;-83
2023/01/24 00:45:47;;;;;;;28.48;26.08;;;;;;;;;;5083407;28;20256;-82
2023/01/24 00:48:15;;;;;;;27.40;25.00;;;;;;;;;;5082308;28;20213;-83
2023/01/24 00:50:42;;;;;;;27.88;25.60;;;;;;;;;;5083119;28;20206;-83
2023/01/24 00:53:09;;;;;;;27.50;25.30;;;;;;;;;;5082146;28;20317;-83
2023/01/24 00:55:41;;;;;;;23.35;21.73;;;;;;;;;;5083162;28;20259;-82
2023/01/24 00:58:08;;;;;;;28.65;25.92;;;;;;;;;;5084655;28;20228;-83
2023/01/24 01:00:38;;;;;;;22.38;20.88;;;;;;;;;;5081805;28;20197;-83
2023/01/24 01:03:05;;;;;;;26.95;24.80;;;;;;;;;;5082008;28;20222;-82
2023/01/24 01:05:33;;;;;;;23.77;21.95;;;;;;;;;;5090612;28;20259;-82
2023/01/24 01:07:59;;;;;;;27.60;25.15;;;;;;;;;;5089745;28;20259;-82
2023/01/24 01:10:27;;;;;;;26.60;24.60;;;;;;;;;;5088225;28;20206;-83
2023/01/24 01:12:54;;;;;;;25.10;23.30;;;;;;;;;;5087824;28;20208;-83
2023/01/24 01:15:20;;;;;;;26.33;24.42;;;;;;;;;;5090655;28;20212;-83
2023/01/24 01:17:49;;;;;;;24.88;22.98;;;;;;;;;;5088453;28;20236;-83
2023/01/24 01:20:16;;;;;;;23.08;21.48;;;;;;;;;;5089504;28;20200;-83
2023/01/24 01:22:43;;;;;;;25.30;23.50;;;;;;;;;;5088059;28;20214;-83
2023/01/24 01:25:10;;;;;;;25.08;23.27;;;;;;;;;;5088478;28;20236;-82
2023/01/24 01:27:38;;;;;;;24.73;22.90;;;;;;;;;;5088520;28;20202;-83
2023/01/24 01:30:05;;;;;;;26.55;24.35;;;;;;;;;;5089016;28;20266;-83
2023/01/24 01:32:32;;;;;;;24.85;23.10;;;;;;;;;;5088216;28;20201;-83
2023/01/24 01:35:01;;;;;;;24.60;22.70;;;;;;;;;;5087457;28;20229;-83
2023/01/24 01:37:28;;;;;;;25.08;23.35;;;;;;;;;;5089417;28;20205;-83
2023/01/24 01:39:54;;;;;;;22.83;21.38;;;;;;;;;;5089018;28;20209;-83
2023/01/24 01:42:21;;;;;;;25.80;23.92;;;;;;;;;;5088409;28;20216;-83
2023/01/24 01:44:49;;;;;;;226.80;101.55;;;;;;;;;;5088909;28;20227;-83
2023/01/24 01:47:22;;;;;;;21.23;20.02;;;;;;;;;;5087511;28;20208;-83
2023/01/24 01:49:53;;;;;;;25.00;23.10;;;;;;;;;;5088248;28;20207;-83
2023/01/24 01:52:23;;;;;;;24.33;22.80;;;;;;;;;;5085858;28;20184;-82
2023/01/24 01:54:51;;;;;;;25.60;23.80;;;;;;;;;;5087304;28;20223;-82
2023/01/24 01:57:19;;;;;;;27.55;25.45;;;;;;;;;;5086294;28;20209;-82
2023/01/24 01:59:49;;;;;;;249.43;89.05;;;;;;;;;;5086447;28;20232;-83
2023/01/24 02:02:16;;;;;;;302.27;110.10;;;;;;;;;;5086073;28;20279;-83
2023/01/24 02:04:46;;;;;;;387.98;99.95;;;;;;;;;;5086186;28;20224;-83
2023/01/24 02:07:15;;;;;;;343.50;108.25;;;;;;;;;;5086649;28;20527;-83
2023/01/24 02:09:44;;;;;;;323.45;139.25;;;;;;;;;;5085973;28;20230;-83
2023/01/24 02:12:12;;;;;;;24.27;22.67;;;;;;;;;;5084717;28;20197;-83
2023/01/24 02:17:25;;;;;;;24.73;23.02;;;;;;;;;;5083139;28;20183;-83
2023/01/24 02:20:00;;;;;;;22.73;21.33;;;;;;;;;;5083134;28;20238;-82
2023/01/24 02:22:30;;;;;;;24.40;22.77;;;;;;;;;;5082036;28;20264;-83
2023/01/24 02:25:03;;;;;;;24.42;22.83;;;;;;;;;;5082584;28;20255;-82
2023/01/24 02:27:32;;;;;;;24.63;22.83;;;;;;;;;;5082040;28;20279;-83
2023/01/24 02:29:59;;;;;;;24.42;22.63;;;;;;;;;;5083675;28;20208;-84
2023/01/24 02:32:26;;;;;;;24.73;23.02;;;;;;;;;;5081436;28;20213;-82
2023/01/24 02:34:53;;;;;;;26.10;24.23;;;;;;;;;;5082370;28;20229;-83
2023/01/24 02:37:20;;;;;;;24.92;23.27;;;;;;;;;;5082169;28;20209;-82
2023/01/24 02:39:51;;;;;;;24.75;23.00;;;;;;;;;;5082492;28;20253;-82
2023/01/24 02:42:20;;;;;;;25.00;23.30;;;;;;;;;;5081910;28;20205;-82
2023/01/24 02:44:52;;;;;;;25.17;23.38;;;;;;;;;;5082026;28;20231;-83
2023/01/24 02:47:19;;;;;;;25.30;23.70;;;;;;;;;;5082456;28;20221;-83
2023/01/24 02:49:46;;;;;;;26.25;24.40;;;;;;;;;;5081733;28;20201;-82
2023/01/24 02:54:57;;;;;;;25.42;23.58;;;;;;;;;;5081479;28;20232;-82
2023/01/24 03:00:12;;;;;;;24.58;22.98;;;;;;;;;;5081960;28;20208;-83
2023/01/24 03:02:39;;;;;;;25.35;23.45;;;;;;;;;;5079959;28;20687;-83
2023/01/24 03:05:07;;;;;;;26.23;24.23;;;;;;;;;;5084338;28;20698;-83
2023/01/24 03:07:44;;;;;;;24.60;22.98;;;;;;;;;;5085515;28;20245;-82
2023/01/24 03:10:11;;;;;;;26.27;24.42;;;;;;;;;;5085908;28;20204;-83
2023/01/24 03:34:48;;;;;;;24.98;23.10;;;;;;;;;;5084644;28;20942;-83
2023/01/24 03:37:15;;;;;;;26.27;24.33;;;;;;;;;;5085017;28;20188;-83
2023/01/24 03:39:58;;;;;;;26.15;24.08;;;;;;;;;;5084100;28;20259;-82
2023/01/24 03:42:25;;;;;;;25.67;23.92;;;;;;;;;;5084399;28;20254;-83
2023/01/24 03:44:52;;;;;;;26.27;24.52;;;;;;;;;;5084192;28;20225;-82
2023/01/24 03:47:20;;;;;;;26.77;24.67;;;;;;;;;;5084514;28;20204;-83
2023/01/24 03:52:32;;;;;;;25.30;23.52;;;;;;;;;;5085795;28;20200;-83
2023/01/24 03:55:00;;;;;;;25.92;23.77;;;;;;;;;;5085949;28;20233;-81
2023/01/24 03:57:28;;;;;;;25.55;23.77;;;;;;;;;;5085511;28;20204;-82
2023/01/24 03:59:55;;;;;;;25.08;23.17;;;;;;;;;;5085402;28;20210;-82
2023/01/24 04:02:23;;;;;;;25.88;24.05;;;;;;;;;;5084262;28;20212;-83
2023/01/24 04:07:35;;;;;;;26.73;24.70;;;;;;;;;;5084687;28;20181;-83
2023/01/24 04:10:02;;;;;;;23.75;22.20;;;;;;;;;;5084276;28;20655;-83
2023/01/24 04:12:29;;;;;;;26.65;24.65;;;;;;;;;;5083340;28;20213;-82
2023/01/24 04:14:56;;;;;;;21.65;20.35;;;;;;;;;;5083040;28;20226;-82
2023/01/24 04:17:25;;;;;;;26.10;24.40;;;;;;;;;;5083711;28;20205;-82
2023/01/24 04:19:52;;;;;;;25.05;23.35;;;;;;;;;;5084639;28;20208;-83
2023/01/24 04:22:19;;;;;;;24.95;23.25;;;;;;;;;;5083183;28;20648;-83
2023/01/24 04:24:46;;;;;;;25.25;23.45;;;;;;;;;;5084103;28;20218;-81
2023/01/24 04:27:13;;;;;;;25.73;23.85;;;;;;;;;;5083634;28;20209;-83
2023/01/24 04:29:40;;;;;;;25.17;23.48;;;;;;;;;;5083223;28;20206;-84
2023/01/24 04:32:08;;;;;;;26.65;24.50;;;;;;;;;;5082952;28;20261;-83
2023/01/24 04:34:36;;;;;;;24.40;22.88;;;;;;;;;;5083578;28;20274;-82
2023/01/24 04:37:03;;;;;;;26.05;24.15;;;;;;;;;;5083369;28;20327;-83
2023/01/24 04:39:30;;;;;;;24.88;23.17;;;;;;;;;;5083646;28;20689;-83
2023/01/24 04:41:57;;;;;;;23.88;22.23;;;;;;;;;;5083086;28;20209;-83
2023/01/24 04:44:24;;;;;;;26.92;24.92;;;;;;;;;;5083669;28;20225;-82
2023/01/24 04:46:51;;;;;;;25.10;23.40;;;;;;;;;;5083622;28;20228;-83
2023/01/24 04:49:18;;;;;;;26.38;24.25;;;;;;;;;;5083781;28;20201;-82
2023/01/24 04:51:47;;;;;;;27.02;24.80;;;;;;;;;;5082483;28;20688;-83
2023/01/24 04:54:14;;;;;;;24.98;23.27;;;;;;;;;;5082807;28;20272;-82
2023/01/24 04:56:41;;;;;;;26.23;24.42;;;;;;;;;;5083306;28;20667;-81
2023/01/24 04:59:08;;;;;;;26.92;24.73;;;;;;;;;;5082955;28;20260;-82
2023/01/24 05:01:35;;;;;;;26.33;23.85;;;;;;;;;;5082572;28;20225;-82
2023/01/24 05:04:02;;;;;;;26.85;24.80;;;;;;;;;;5082963;28;20188;-83
2023/01/24 05:06:30;;;;;;;28.00;25.85;;;;;;;;;;5082488;28;20205;-82
2023/01/24 05:08:59;;;;;;;26.10;24.17;;;;;;;;;;5083075;28;20207;-83
2023/01/24 05:11:26;;;;;;;26.50;24.50;;;;;;;;;;5082374;28;20204;-82
2023/01/24 05:13:53;;;;;;;26.75;24.70;;;;;;;;;;5082488;28;20209;-82
2023/01/24 05:16:20;;;;;;;26.13;24.13;;;;;;;;;;5081562;28;20279;-82
2023/01/24 05:18:47;;;;;;;25.20;23.30;;;;;;;;;;5083827;28;20250;-84
2023/01/24 05:21:15;;;;;;;27.25;24.92;;;;;;;;;;5082117;28;20226;-84
2023/01/24 05:23:43;;;;;;;27.15;25.15;;;;;;;;;;5082143;28;20259;-82
2023/01/24 05:26:11;;;;;;;28.52;26.23;;;;;;;;;;5084117;28;20282;-83
2023/01/24 05:28:38;;;;;;;27.05;25.08;;;;;;;;;;5082579;28;20699;-83
2023/01/24 05:31:08;;;;;;;25.45;23.55;;;;;;;;;;5081486;28;20208;-83
2023/01/24 05:33:35;;;;;;;27.92;25.73;;;;;;;;;;5081510;28;20256;-84
2023/01/24 05:36:06;;;;;;;24.23;22.23;;;;;;;;;;5083266;28;20230;-83
2023/01/24 05:38:33;;;;;;;27.77;25.58;;;;;;;;;;5082922;28;20196;-83
2023/01/24 05:41:01;;;;;;;28.00;25.80;;;;;;;;;;5082060;28;20206;-83
2023/01/24 05:43:29;;;;;;;28.75;26.45;;;;;;;;;;5082568;28;20205;-83
2023/01/24 05:45:58;;;;;;;26.98;25.05;;;;;;;;;;5083494;28;20221;-82
2023/01/24 05:48:25;;;;;;;25.77;23.90;;;;;;;;;;5083625;28;20259;-83
2023/01/24 05:50:57;;;;;;;26.15;24.25;;;;;;;;;;5082601;28;20533;-81
2023/01/24 05:53:24;;;;;;;27.55;25.20;;;;;;;;;;5082406;28;20243;-82
2023/01/24 05:55:55;;;;;;;26.95;25.05;;;;;;;;;;5082049;28;20229;-83
2023/01/24 05:58:22;;;;;;;49.78;38.17;;;;;;;;;;5082121;28;20189;-83
2023/01/24 06:00:50;;;;;;;27.23;25.17;;;;;;;;;;5083931;28;20208;-82
2023/01/24 06:03:17;;;;;;;27.05;24.95;;;;;;;;;;5080527;28;20217;-82
2023/01/24 06:05:46;;;;;;;26.52;24.63;;;;;;;;;;5081603;28;20278;-83
2023/01/24 06:08:13;;;;;;;25.48;23.77;;;;;;;;;;5081491;28;20198;-83
2023/01/24 06:10:40;;;;;;;25.90;23.90;;;;;;;;;;5081226;28;20255;-82
2023/01/24 06:13:07;;;;;;;27.15;25.08;;;;;;;;;;5081575;28;20206;-82
2023/01/24 06:15:34;;;;;;;26.63;24.63;;;;;;;;;;5081673;28;20584;-82
2023/01/24 06:18:03;;;;;;;26.70;24.60;;;;;;;;;;5082377;28;20610;-83
2023/01/24 06:20:30;;;;;;;24.48;22.67;;;;;;;;;;5082574;28;20230;-82
2023/01/24 06:22:58;;;;;;;25.10;23.30;;;;;;;;;;5080870;28;20618;-82
2023/01/24 06:25:26;;;;;;;25.83;23.92;;;;;;;;;;5080535;28;20271;-81
2023/01/24 06:27:53;;;;;;;25.75;23.67;;;;;;;;;;5090679;28;20226;-82
2023/01/24 06:30:21;;;;;;;27.02;25.02;;;;;;;;;;5100643;28;20627;-83
2023/01/24 06:32:58;;;;;;;25.92;23.95;;;;;;;;;;5099966;28;20619;-83
2023/01/24 06:35:29;;;;;;;26.50;24.50;;;;;;;;;;5100086;28;20228;-83
2023/01/24 06:37:57;;;;;;;24.25;22.55;;;;;;;;;;5100344;28;20203;-83
2023/01/24 06:40:25;;;;;;;25.92;23.92;;;;;;;;;;5100297;28;20264;-82
2023/01/24 06:42:52;;;;;;;27.48;24.98;;;;;;;;;;5099899;28;20204;-82
2023/01/24 06:45:20;;;;;;;25.17;23.33;;;;;;;;;;5100354;28;20217;-82
2023/01/24 06:47:47;;;;;;;24.65;22.75;;;;;;;;;;5100213;28;20209;-83
2023/01/24 06:50:15;;;;;;;26.20;24.15;;;;;;;;;;5100203;28;20224;-83
2023/01/24 06:52:45;;;;;;;25.90;23.80;;;;;;;;;;5100236;28;20614;-82
2023/01/24 06:55:12;;;;;;;25.60;23.70;;;;;;;;;;5100356;28;20223;-83
2023/01/24 06:57:39;;;;;;;25.58;23.35;;;;;;;;;;5100445;28;20231;-82
2023/01/24 07:00:07;;;;;;;25.75;23.85;;;;;;;;;;5100292;28;20215;-83
2023/01/24 07:02:34;;;;;;;26.42;24.27;;;;;;;;;;5097556;28;20221;-82
2023/01/24 07:05:01;;;;;;;25.58;23.65;;;;;;;;;;5100296;28;20294;-83
2023/01/24 07:07:28;;;;;;;25.50;23.67;;;;;;;;;;5100475;28;20205;-82
2023/01/24 07:09:56;;;;;;;27.27;25.08;;;;;;;;;;5100585;28;20202;-83
2023/01/24 07:12:23;;;;;;;23.95;22.30;;;;;;;;;;5098805;28;20258;-83
2023/01/24 07:14:50;;;;;;;25.30;23.50;;;;;;;;;;5100323;28;20254;-83
2023/01/24 07:17:18;;;;;;;25.50;23.60;;;;;;;;;;5099289;28;20600;-82
2023/01/24 07:19:45;;;;;;;25.58;23.85;;;;;;;;;;5099096;28;20616;-82
2023/01/24 07:22:12;;;;;;;24.52;22.95;;;;;;;;;;5098609;28;20208;-82
2023/01/24 07:24:40;;;;;;;25.17;23.48;;;;;;;;;;5099015;28;20233;-82
2023/01/24 07:27:09;;;;;;;24.08;22.50;;;;;;;;;;5099153;28;20657;-82
2023/01/24 07:29:36;;;;;;;26.90;24.80;;;;;;;;;;5098295;28;20216;-82
2023/01/24 07:32:04;;;;;;;27.50;25.30;;;;;;;;;;5098380;28;20206;-82
2023/01/24 07:34:30;;;;;;;26.38;24.45;;;;;;;;;;5099144;28;20224;-81
2023/01/24 07:36:57;;;;;;;27.15;24.98;;;;;;;;;;5097967;28;20216;-82
2023/01/24 07:39:25;;;;;;;25.33;23.58;;;;;;;;;;5098420;28;20230;-82
2023/01/24 07:41:52;;;;;;;25.42;23.73;;;;;;;;;;5096773;28;20221;-78
2023/01/24 07:44:21;;;;;;;25.23;23.42;;;;;;;;;;5095489;28;20213;-79
2023/01/24 07:46:48;;;;;;;24.70;22.98;;;;;;;;;;5093316;28;20206;-78
2023/01/24 07:49:15;;;;;;;25.25;23.45;;;;;;;;;;5096550;28;20261;-81
2023/01/24 07:51:42;;;;;;;23.63;22.02;;;;;;;;;;5101612;28;20209;-81
2023/01/24 07:54:09;;;;;;;22.80;21.30;;;;;;;;;;5101853;28;20200;-80
2023/01/24 07:56:36;;;;;;;24.77;22.98;;;;;;;;;;5096798;28;20297;-78
2023/01/24 07:59:03;;;;;;;23.65;22.13;;;;;;;;;;5097867;28;20204;-78
2023/01/24 08:01:31;;;;;;;23.83;22.23;;;;;;;;;;5097294;28;20202;-79
2023/01/24 08:03:58;;;;;;;26.48;24.58;;;;;;;;;;5097591;28;20251;-79
2023/01/24 08:06:26;;;;;;;25.70;23.95;;;;;;;;;;5098299;28;20226;-78
2023/01/24 08:08:53;;;;;;;27.50;25.63;;;;;;;;;;5098027;28;20197;-78
2023/01/24 08:11:21;;;;;;;25.77;23.73;;;;;;;;;;5098588;28;20220;-79
2023/01/24 08:13:49;;;;;;;26.30;24.30;;;;;;;;;;5097980;28;20268;-79
2023/01/24 08:16:17;;;;;;;25.05;23.15;;;;;;;;;;5100401;28;20235;-79
2023/01/24 08:18:45;;;;;;;25.75;23.85;;;;;;;;;;5095273;28;20217;-86
2023/01/24 08:21:12;;;;;;;25.88;23.98;;;;;;;;;;5101477;28;20255;-84
2023/01/24 08:23:39;;;;;;;24.95;23.15;;;;;;;;;;5103798;28;20323;-83
2023/01/24 08:26:07;;;;;;;26.23;24.27;;;;;;;;;;5102302;28;20686;-86
2023/01/24 08:28:35;;;;;;;25.73;24.02;;;;;;;;;;5098549;28;20189;-77
2023/01/24 08:31:02;;;;;;;25.13;23.23;;;;;;;;;;5095979;28;20211;-76
2023/01/24 08:33:29;;;;;;;26.35;24.50;;;;;;;;;;5094936;28;20273;-76
2023/01/24 08:35:59;;;;;;;26.42;24.58;;;;;;;;;;5095113;28;20274;-76
2023/01/24 08:38:26;;;;;;;28.45;26.25;;;;;;;;;;5096018;28;20257;-77
2023/01/24 08:40:53;;;;;;;25.83;23.98;;;;;;;;;;5100203;28;20204;-87
2023/01/24 08:43:20;;;;;;;27.20;25.13;;;;;;;;;;5101370;28;20191;-82
2023/01/24 08:45:47;;;;;;;27.17;25.15;;;;;;;;;;5101809;28;20225;-84
2023/01/24 08:48:14;;;;;;;26.42;24.52;;;;;;;;;;5100129;28;20204;-84
2023/01/24 08:50:41;;;;;;;26.42;24.33;;;;;;;;;;5100517;28;20212;-83
2023/01/24 08:53:09;;;;;;;26.10;24.20;;;;;;;;;;5100259;28;20200;-84
2023/01/24 08:55:37;;;;;;;24.55;22.90;;;;;;;;;;5096837;28;20229;-83
2023/01/24 08:58:05;;;;;;;23.58;21.88;;;;;;;;;;5098888;28;20273;-85
2023/01/24 09:00:32;;;;;;;24.60;22.90;;;;;;;;;;5099835;28;20201;-85
2023/01/24 09:03:00;;;;;;;24.50;22.90;;;;;;;;;;5100149;28;20842;-90
2023/01/24 09:05:27;;;;;;;23.70;22.10;;;;;;;;;;5098225;28;20221;-86
2023/01/24 09:07:55;;;;;;;24.10;22.63;;;;;;;;;;5097768;28;20205;-87
2023/01/24 09:10:23;;;;;;;24.23;22.52;;;;;;;;;;5099167;28;20246;-90
2023/01/24 09:12:50;;;;;;;24.45;22.75;;;;;;;;;;5098068;28;20210;-87
2023/01/24 09:15:17;;;;;;;25.27;23.58;;;;;;;;;;5097024;28;20614;-88
2023/01/24 09:17:44;;;;;;;25.67;23.98;;;;;;;;;;5097854;28;20253;-75
2023/01/24 09:20:12;;;;;;;24.88;23.13;;;;;;;;;;5094425;28;20223;-74
2023/01/24 09:22:39;;;;;;;25.90;24.00;;;;;;;;;;5094188;28;20208;-74
2023/01/24 09:25:07;;;;;;;25.08;23.38;;;;;;;;;;5096576;28;20276;-81
2023/01/24 09:27:36;;;;;;;24.83;23.05;;;;;;;;;;5097897;28;20659;-74
2023/01/24 09:30:03;;;;;;;25.48;23.80;;;;;;;;;;5094865;28;20208;-76
2023/01/24 09:32:30;;;;;;;25.00;23.30;;;;;;;;;;5094090;28;20205;-76
2023/01/24 09:34:57;;;;;;;26.83;24.73;;;;;;;;;;5097038;28;20225;-86
2023/01/24 09:37:24;;;;;;;25.55;23.85;;;;;;;;;;5098314;28;20293;-82
2023/01/24 09:39:55;;;;;;;25.10;23.40;;;;;;;;;;5097589;28;20234;-81
2023/01/24 09:42:27;;;;;;;24.35;22.65;;;;;;;;;;5093560;28;20212;-76
2023/01/24 09:45:00;;;;;;;24.83;23.23;;;;;;;;;;5093715;28;20696;-76
2023/01/24 09:47:30;;;;;;;24.80;23.20;;;;;;;;;;5093948;28;20239;-76
2023/01/24 09:49:59;;;;;;;24.38;22.70;;;;;;;;;;5093710;28;20262;-76
2023/01/24 09:52:33;;;;;;;24.42;22.80;;;;;;;;;;5093785;28;20205;-76
2023/01/24 09:55:04;;;;;;;23.35;21.75;;;;;;;;;;5093673;28;20293;-76
2023/01/24 09:57:33;;;;;;;24.55;23.00;;;;;;;;;;5094551;28;20758;-76
2023/01/24 10:00:04;;;;;;;24.92;23.17;;;;;;;;;;5094334;28;20205;-75
2023/01/24 10:02:32;;;;;;;23.50;21.75;;;;;;;;;;5093304;28;20211;-76
2023/01/24 10:05:00;;;;;;;28.05;25.80;;;;;;;;;;5093462;28;20270;-76
2023/01/24 10:07:34;;;;;;;25.23;23.52;;;;;;;;;;5093963;28;20212;-76
2023/01/24 10:10:07;;;;;;;25.27;23.48;;;;;;;;;;5094580;28;20196;-76
2023/01/24 10:12:41;;;;;;;26.25;24.35;;;;;;;;;;5092881;28;20326;-77
2023/01/24 10:15:16;;;;;;;26.23;24.30;;;;;;;;;;5096789;28;20231;-85
2023/01/24 10:17:48;;;;;;;23.40;21.60;;;;;;;;;;5099142;28;20208;-84
2023/01/24 10:20:18;;;;;;;28.42;26.25;;;;;;;;;;5097459;28;20643;-83
2023/01/24 10:22:54;;;;;;;26.60;24.60;;;;;;;;;;5096897;28;20223;-83
2023/01/24 10:25:23;;;;;;;27.15;25.05;;;;;;;;;;5094168;28;20219;-75
2023/01/24 10:27:53;;;;;;;26.75;24.75;;;;;;;;;;5095223;28;20203;-78
2023/01/24 10:30:24;;;;;;;26.73;24.80;;;;;;;;;;5095006;28;20241;-76
2023/01/24 10:32:54;;;;;;;25.48;23.83;;;;;;;;;;5094222;28;20201;-77
2023/01/24 10:35:23;;;;;;;27.95;25.85;;;;;;;;;;5093234;28;20235;-75
2023/01/24 10:37:55;;;;;;;27.80;25.80;;;;;;;;;;5093487;28;20746;-76
2023/01/24 10:40:24;;;;;;;28.38;26.25;;;;;;;;;;5093440;28;20355;-76
2023/01/24 10:42:51;;;;;;;27.70;25.60;;;;;;;;;;5092568;28;20209;-75
2023/01/24 10:45:30;;;;;;;29.17;27.02;;;;;;;;;;5094699;28;20236;-77
2023/01/24 10:47:59;;;;;;;27.95;25.92;;;;;;;;;;5096919;28;20213;-77
2023/01/24 10:50:34;;;;;;;27.30;25.30;;;;;;;;;;5093983;28;20656;-77
2023/01/24 10:53:12;;;;;;;27.35;25.35;;;;;;;;;;5093581;28;20280;-77
2023/01/24 10:55:40;;;;;;;27.67;25.58;;;;;;;;;;5093676;28;20237;-77
2023/01/24 10:58:20;;;;;;;28.02;25.85;;;;;;;;;;5094521;28;20255;-77
2023/01/24 11:00:56;;;;;;;26.73;24.83;;;;;;;;;;5093906;28;20284;-77
2023/01/24 11:03:24;;;;;;;27.20;25.00;;;;;;;;;;5093100;28;20223;-77
2023/01/24 11:05:53;;;;;;;26.48;24.13;;;;;;;;;;5093765;28;20225;-77
2023/01/24 11:08:21;;;;;;;25.80;23.98;;;;;;;;;;5094188;28;20208;-77
2023/01/24 11:10:51;;;;;;;27.08;24.85;;;;;;;;;;5093613;28;20245;-78
2023/01/24 11:13:26;;;;;;;25.88;23.88;;;;;;;;;;5093455;28;20257;-77
2023/01/24 11:15:57;;;;;;;25.13;23.30;;;;;;;;;;5093717;28;20223;-77
2023/01/24 11:18:27;;;;;;;28.33;26.08;;;;;;;;;;5093786;28;20198;-76
2023/01/24 11:21:05;;;;;;;25.23;23.45;;;;;;;;;;5093670;28;20195;-76
2023/01/24 11:23:33;;;;;;;22.65;20.83;;;;;;;;;;5092817;28;20634;-77
2023/01/24 11:26:01;;;;;;;24.92;23.25;;;;;;;;;;5096632;28;20228;-77
2023/01/24 11:28:28;;;;;;;25.73;23.88;;;;;;;;;;5099943;28;20678;-77
2023/01/24 11:30:58;;;;;;;25.00;23.33;;;;;;;;;;5098697;28;20212;-77
2023/01/24 11:33:35;;;;;;;25.75;23.85;;;;;;;;;;5097111;28;20287;-76
2023/01/24 11:36:03;;;;;;;26.52;24.52;;;;;;;;;;5097685;28;20627;-76
2023/01/24 11:38:33;;;;;;;27.17;25.20;;;;;;;;;;5097269;28;20207;-76
2023/01/24 11:41:05;;;;;;;25.20;23.60;;;;;;;;;;5097600;28;20232;-76
2023/01/24 11:43:40;;;;;;;25.85;24.05;;;;;;;;;;5096069;28;20208;-77
2023/01/24 11:46:28;;;;;;;26.45;24.55;;;;;;;;;;5097317;28;20281;-77
2023/01/24 11:48:57;;;;;;;25.60;23.80;;;;;;;;;;5098322;28;20639;-77
2023/01/24 11:51:31;;;;;;;24.73;23.02;;;;;;;;;;5096775;28;20205;-77
2023/01/24 11:54:13;;;;;;;25.63;23.83;;;;;;;;;;5097177;28;20197;-77
2023/01/24 11:56:43;;;;;;;26.50;24.60;;;;;;;;;;5093872;28;20223;-77
2023/01/24 11:59:21;;;;;;;26.23;24.27;;;;;;;;;;5097201;28;20204;-76
2023/01/24 12:01:55;;;;;;;26.20;24.35;;;;;;;;;;5097406;28;20213;-78
2023/01/24 12:04:30;;;;;;;25.92;23.92;;;;;;;;;;5097630;28;20229;-77
2023/01/24 12:07:00;;;;;;;24.40;22.60;;;;;;;;;;5097744;28;20185;-77
2023/01/24 12:09:30;;;;;;;24.58;22.85;;;;;;;;;;5097004;28;20684;-76
2023/01/24 12:12:04;;;;;;;25.80;24.05;;;;;;;;;;5097818;28;20227;-77
2023/01/24 12:14:50;;;;;;;22.85;21.35;;;;;;;;;;5097080;28;20274;-77
2023/01/24 12:17:27;;;;;;;25.77;24.08;;;;;;;;;;5097214;28;20621;-77
2023/01/24 12:20:02;;;;;;;26.10;24.30;;;;;;;;;;5098080;28;20243;-78
2023/01/24 12:22:30;;;;;;;25.00;23.30;;;;;;;;;;5098984;28;20193;-77
2023/01/24 12:25:01;;;;;;;24.65;23.05;;;;;;;;;;5098353;28;20255;-77
2023/01/24 12:27:30;;;;;;;25.20;23.50;;;;;;;;;;5099345;28;20210;-77
2023/01/24 12:29:59;;;;;;;24.90;23.20;;;;;;;;;;5097282;28;20214;-77
2023/01/24 12:32:30;;;;;;;21.85;20.58;;;;;;;;;;5098680;28;20258;-77
2023/01/24 12:35:01;;;;;;;25.83;23.92;;;;;;;;;;5097132;28;20221;-77
2023/01/24 12:37:29;;;;;;;23.90;22.35;;;;;;;;;;5096192;28;20209;-77
2023/01/24 12:40:00;;;;;;;25.77;23.88;;;;;;;;;;5099873;28;20621;-77
2023/01/24 12:42:35;;;;;;;26.30;24.45;;;;;;;;;;5097695;28;20258;-76
2023/01/24 12:45:03;;;;;;;25.20;23.52;;;;;;;;;;5097325;28;20270;-77
2023/01/24 12:47:36;;;;;;;26.30;24.50;;;;;;;;;;5097989;28;20197;-77
2023/01/24 12:50:14;;;;;;;26.17;24.15;;;;;;;;;;5097964;28;20186;-77
2023/01/24 12:52:43;;;;;;;25.75;24.05;;;;;;;;;;5098071;28;20188;-77
2023/01/24 12:55:14;;;;;;;25.58;23.88;;;;;;;;;;5100614;28;20262;-77
2023/01/24 12:57:43;;;;;;;25.35;23.70;;;;;;;;;;5099979;28;20267;-77
2023/01/24 13:00:16;;;;;;;24.55;23.05;;;;;;;;;;5100157;28;20209;-76
2023/01/24 13:02:51;;;;;;;24.98;23.30;;;;;;;;;;5097327;28;20227;-77
2023/01/24 13:05:22;;;;;;;25.15;23.35;;;;;;;;;;5104193;28;20218;-76
2023/01/24 13:07:56;;;;;;;24.65;22.95;;;;;;;;;;5102668;28;20196;-76
2023/01/24 13:10:28;;;;;;;25.65;23.85;;;;;;;;;;5099151;28;20186;-77
2023/01/24 13:12:56;;;;;;;24.80;23.15;;;;;;;;;;5098339;28;20210;-77
2023/01/24 13:15:25;;;;;;;25.05;23.35;;;;;;;;;;5097204;28;20706;-77
2023/01/24 13:17:59;;;;;;;24.42;22.98;;;;;;;;;;5100917;28;20221;-86
2023/01/24 13:20:36;;;;;;;25.65;24.00;;;;;;;;;;5100496;28;20181;-86
2023/01/24 13:23:14;;;;;;;25.23;23.63;;;;;;;;;;5102101;28;20539;-89
2023/01/24 13:26:04;;;;;;;26.45;24.65;;;;;;;;;;5098521;28;20232;-89
2023/01/24 13:28:37;;;;;;;25.90;24.20;;;;;;;;;;5100156;28;20293;-89
2023/01/24 13:31:08;;;;;;;25.67;24.08;;;;;;;;;;5105741;28;20201;-89
2023/01/24 13:33:38;;;;;;;27.25;25.27;;;;;;;;;;5099232;28;20204;-89
2023/01/24 13:36:07;;;;;;;24.88;23.17;;;;;;;;;;5100604;28;20289;-89
2023/01/24 13:38:39;;;;;;;25.17;23.55;;;;;;;;;;5099239;28;20224;-89
2023/01/24 13:41:07;;;;;;;26.17;24.48;;;;;;;;;;5103175;28;20178;-88
2023/01/24 13:43:53;;;;;;;29.55;27.35;;;;;;;;;;5100049;28;20235;-89
2023/01/24 13:46:20;;;;;;;25.27;23.60;;;;;;;;;;5099299;28;20224;-88
2023/01/24 13:48:56;;;;;;;26.17;24.40;;;;;;;;;;5097897;28;20208;-86
2023/01/24 13:51:24;;;;;;;26.40;24.27;;;;;;;;;;5101729;28;20245;-87
2023/01/24 13:54:01;;;;;;;25.40;23.60;;;;;;;;;;5103470;28;20230;-85
2023/01/24 13:56:28;;;;;;;26.85;25.05;;;;;;;;;;5103075;28;20549;-86
2023/01/24 13:58:58;;;;;;;29.60;27.10;;;;;;;;;;5103278;28;20269;-87
2023/01/24 14:01:26;;;;;;;27.25;25.20;;;;;;;;;;5102099;28;20254;-86
2023/01/24 14:04:00;;;;;;;28.70;26.58;;;;;;;;;;5102383;28;20556;-86
2023/01/24 14:06:28;;;;;;;27.40;25.40;;;;;;;;;;5101157;28;20224;-83
2023/01/24 14:09:13;;;;;;;27.20;25.30;;;;;;;;;;5101552;28;20200;-82
2023/01/24 14:11:48;;;;;;;25.80;23.92;;;;;;;;;;5100195;28;20703;-84
2023/01/24 14:14:35;;;;;;;27.15;25.25;;;;;;;;;;5098735;28;20183;-88
2023/01/24 14:17:04;;;;;;;27.45;25.42;;;;;;;;;;5099802;28;20254;-84
2023/01/24 14:19:37;;;;;;;28.65;26.55;;;;;;;;;;5104209;28;20216;-83
2023/01/24 14:22:07;;;;;;;28.35;26.05;;;;;;;;;;5103612;28;20234;-85
2023/01/24 14:24:35;;;;;;;27.08;25.17;;;;;;;;;;5104879;28;20228;-84
2023/01/24 14:27:03;;;;;;;26.75;24.77;;;;;;;;;;5102485;28;20200;-83
2023/01/24 14:29:36;;;;;;;25.70;23.95;;;;;;;;;;5103574;28;20670;-85
2023/01/24 14:32:04;;;;;;;28.15;26.05;;;;;;;;;;5102377;28;20189;-85
2023/01/24 14:34:35;;;;;;;28.38;26.27;;;;;;;;;;5099944;28;20223;-84
2023/01/24 14:37:05;;;;;;;25.30;23.50;;;;;;;;;;5101727;28;20250;-84
2023/01/24 14:39:32;;;;;;;24.55;22.95;;;;;;;;;;5104599;28;20200;-84
2023/01/24 14:42:00;;;;;;;25.75;24.08;;;;;;;;;;5101517;28;20200;-84
2023/01/24 14:44:29;;;;;;;26.33;24.63;;;;;;;;;;5102050;28;20218;-84
2023/01/24 14:46:57;;;;;;;27.17;25.33;;;;;;;;;;5101258;28;20205;-84
2023/01/24 14:49:28;;;;;;;26.95;25.20;;;;;;;;;;5099197;28;20235;-87
2023/01/24 14:51:55;;;;;;;27.00;25.10;;;;;;;;;;5098052;28;20253;-86
2023/01/24 14:54:26;;;;;;;25.80;24.00;;;;;;;;;;5100327;28;20230;-86
2023/01/24 14:56:53;;;;;;;26.35;24.45;;;;;;;;;;5100462;28;20181;-88
2023/01/24 14:59:20;;;;;;;26.30;24.50;;;;;;;;;;5103002;28;20207;-77
2023/01/24 15:01:51;;;;;;;26.10;24.25;;;;;;;;;;5102465;28;20215;-85
2023/01/24 15:04:21;;;;;;;25.77;23.98;;;;;;;;;;5104806;28;20622;-86